PACV METAR and TAF weather

Enter ICAO airport designator
Station Type Date Time Source
PACV METAR 2022/12/05 14:53 UTC NOAA

PACV 051453Z 00000KT 10SM CLR M12/M14 A3017 RMK AO2 SLP217 T11171144 58016 $


Station Type Date Time Source
PACV Decoded METAR 2022/12/05 14:53 UTC NOAA

MERLE K. SMITH AIRPORT, AK, United States (PACV) 60-30N 145-29W 13M
Dec 05, 2022 - 09:53 AM EST / 2022.12.05 1453 UTC
Wind: Calm:0
Visibility: 10 mile(s):0
Sky conditions: clear
Temperature: 10.9 F (-11.7 C)
Dew Point: 6.1 F (-14.4 C)
Relative Humidity: 80%
Pressure (altimeter): 30.17 in. Hg (1021 hPa)
Pressure tendency: 0.05 inches (1.6 hPa) lower than three hours ago
ob: PACV 051453Z 00000KT 10SM CLR M12/M14 A3017 RMK AO2 SLP217 T11171144 58016
cycle: 15

Station Type Date Time Source
PACV TAF 2022/12/05 12:30 UTC NOAA

TAF PACV 051127Z 0512/0612 VRB04KT P6SM BKN150
FM060000 VRB05KT 5SM -SN BR BKN030 OVC050
FM060200 VRB05KT 2SM -SN BR OVC020
FM060400 10007KT 4SM -RA BR BKN012 OVC020

Example: see airport list